sensor_id;sensor_type;location;lat;lon;timestamp;P1;durP1;ratioP1;P2;durP2;ratioP2
10831;SDS011;5469;48.574;8.768;2022-10-31T00:01:00;2.80;;;1.73;;
10831;SDS011;5469;48.574;8.768;2022-10-31T00:03:41;4.63;;;1.73;;
10831;SDS011;5469;48.574;8.768;2022-10-31T00:06:16;2.17;;;1.43;;
10831;SDS011;5469;48.574;8.768;2022-10-31T00:08:53;3.07;;;1.20;;
10831;SDS011;5469;48.574;8.768;2022-10-31T00:11:32;3.40;;;1.23;;
10831;SDS011;5469;48.574;8.768;2022-10-31T00:14:07;1.10;;;1.00;;
10831;SDS011;5469;48.574;8.768;2022-10-31T00:16:43;1.67;;;1.20;;
10831;SDS011;5469;48.574;8.768;2022-10-31T00:19:18;1.83;;;1.10;;
10831;SDS011;5469;48.574;8.768;2022-10-31T00:21:53;1.13;;;1.03;;
10831;SDS011;5469;48.574;8.768;2022-10-31T00:24:29;0.90;;;0.83;;
10831;SDS011;5469;48.574;8.768;2022-10-31T00:27:06;1.20;;;0.90;;
10831;SDS011;5469;48.574;8.768;2022-10-31T00:29:40;2.47;;;1.30;;
10831;SDS011;5469;48.574;8.768;2022-10-31T00:32:15;2.53;;;1.07;;
10831;SDS011;5469;48.574;8.768;2022-10-31T00:34:52;1.20;;;1.07;;
10831;SDS011;5469;48.574;8.768;2022-10-31T00:37:27;0.70;;;0.70;;
10831;SDS011;5469;48.574;8.768;2022-10-31T00:40:02;1.73;;;1.00;;
10831;SDS011;5469;48.574;8.768;2022-10-31T00:42:40;1.10;;;0.93;;
10831;SDS011;5469;48.574;8.768;2022-10-31T00:45:15;1.03;;;0.80;;
10831;SDS011;5469;48.574;8.768;2022-10-31T00:47:50;1.80;;;1.03;;
10831;SDS011;5469;48.574;8.768;2022-10-31T00:50:25;1.90;;;1.10;;
10831;SDS011;5469;48.574;8.768;2022-10-31T00:53:00;5.77;;;1.03;;
10831;SDS011;5469;48.574;8.768;2022-10-31T00:55:36;0.70;;;0.70;;
10831;SDS011;5469;48.574;8.768;2022-10-31T00:58:12;1.33;;;1.10;;
10831;SDS011;5469;48.574;8.768;2022-10-31T01:00:48;1.70;;;0.90;;
10831;SDS011;5469;48.574;8.768;2022-10-31T01:03:27;1.10;;;1.00;;
10831;SDS011;5469;48.574;8.768;2022-10-31T01:06:07;3.30;;;1.23;;
10831;SDS011;5469;48.574;8.768;2022-10-31T01:08:43;3.77;;;1.40;;
10831;SDS011;5469;48.574;8.768;2022-10-31T01:11:20;1.67;;;1.10;;
10831;SDS011;5469;48.574;8.768;2022-10-31T01:13:57;1.30;;;1.20;;
10831;SDS011;5469;48.574;8.768;2022-10-31T01:16:32;3.10;;;1.30;;
10831;SDS011;5469;48.574;8.768;2022-10-31T01:19:07;0.80;;;0.80;;
10831;SDS011;5469;48.574;8.768;2022-10-31T01:21:45;2.47;;;1.20;;
10831;SDS011;5469;48.574;8.768;2022-10-31T01:24:22;1.60;;;1.00;;
10831;SDS011;5469;48.574;8.768;2022-10-31T01:26:57;1.37;;;0.93;;
10831;SDS011;5469;48.574;8.768;2022-10-31T01:29:34;1.00;;;0.80;;
10831;SDS011;5469;48.574;8.768;2022-10-31T01:32:10;1.67;;;1.00;;
10831;SDS011;5469;48.574;8.768;2022-10-31T01:34:45;3.07;;;1.37;;
10831;SDS011;5469;48.574;8.768;2022-10-31T01:37:20;1.13;;;1.03;;
10831;SDS011;5469;48.574;8.768;2022-10-31T01:39:55;1.23;;;1.10;;
10831;SDS011;5469;48.574;8.768;2022-10-31T01:42:30;0.57;;;0.57;;
10831;SDS011;5469;48.574;8.768;2022-10-31T01:45:09;2.30;;;0.90;;
10831;SDS011;5469;48.574;8.768;2022-10-31T01:47:52;0.90;;;0.70;;
10831;SDS011;5469;48.574;8.768;2022-10-31T01:50:28;0.77;;;0.70;;
10831;SDS011;5469;48.574;8.768;2022-10-31T01:53:06;1.10;;;1.00;;
10831;SDS011;5469;48.574;8.768;2022-10-31T01:55:44;1.20;;;0.90;;
10831;SDS011;5469;48.574;8.768;2022-10-31T01:58:22;4.43;;;1.03;;
10831;SDS011;5469;48.574;8.768;2022-10-31T02:00:59;1.13;;;0.80;;
10831;SDS011;5469;48.574;8.768;2022-10-31T02:03:35;0.97;;;0.77;;
10831;SDS011;5469;48.574;8.768;2022-10-31T02:06:19;1.50;;;1.30;;
10831;SDS011;5469;48.574;8.768;2022-10-31T02:09:05;2.40;;;1.00;;
10831;SDS011;5469;48.574;8.768;2022-10-31T02:11:41;1.07;;;0.70;;
10831;SDS011;5469;48.574;8.768;2022-10-31T02:14:17;0.70;;;0.60;;
10831;SDS011;5469;48.574;8.768;2022-10-31T02:16:55;1.13;;;0.60;;
10831;SDS011;5469;48.574;8.768;2022-10-31T02:19:33;0.80;;;0.80;;
10831;SDS011;5469;48.574;8.768;2022-10-31T02:22:15;1.00;;;0.70;;
10831;SDS011;5469;48.574;8.768;2022-10-31T02:24:59;0.90;;;0.70;;
10831;SDS011;5469;48.574;8.768;2022-10-31T02:27:51;1.73;;;1.00;;
10831;SDS011;5469;48.574;8.768;2022-10-31T02:30:41;2.40;;;1.20;;
10831;SDS011;5469;48.574;8.768;2022-10-31T02:33:30;1.20;;;1.10;;
10831;SDS011;5469;48.574;8.768;2022-10-31T02:36:12;2.07;;;0.97;;
10831;SDS011;5469;48.574;8.768;2022-10-31T02:38:57;0.60;;;0.53;;
10831;SDS011;5469;48.574;8.768;2022-10-31T02:41:43;2.17;;;0.90;;
10831;SDS011;5469;48.574;8.768;2022-10-31T02:44:22;1.33;;;0.90;;
10831;SDS011;5469;48.574;8.768;2022-10-31T02:47:08;0.70;;;0.70;;
10831;SDS011;5469;48.574;8.768;2022-10-31T02:49:48;1.63;;;1.10;;
10831;SDS011;5469;48.574;8.768;2022-10-31T02:52:31;1.37;;;0.93;;
10831;SDS011;5469;48.574;8.768;2022-10-31T02:55:11;0.80;;;0.57;;
10831;SDS011;5469;48.574;8.768;2022-10-31T02:58:06;0.97;;;0.70;;
10831;SDS011;5469;48.574;8.768;2022-10-31T03:00:48;1.17;;;0.60;;
10831;SDS011;5469;48.574;8.768;2022-10-31T03:03:40;1.83;;;0.87;;
10831;SDS011;5469;48.574;8.768;2022-10-31T03:06:27;1.93;;;0.77;;
10831;SDS011;5469;48.574;8.768;2022-10-31T03:09:10;0.70;;;0.70;;
10831;SDS011;5469;48.574;8.768;2022-10-31T03:11:53;1.97;;;1.00;;
10831;SDS011;5469;48.574;8.768;2022-10-31T03:14:38;1.47;;;0.93;;
10831;SDS011;5469;48.574;8.768;2022-10-31T03:17:20;1.43;;;0.90;;
10831;SDS011;5469;48.574;8.768;2022-10-31T03:20:00;1.10;;;0.80;;
10831;SDS011;5469;48.574;8.768;2022-10-31T03:22:37;1.20;;;1.07;;
10831;SDS011;5469;48.574;8.768;2022-10-31T03:25:15;1.77;;;0.90;;
10831;SDS011;5469;48.574;8.768;2022-10-31T03:27:51;1.70;;;0.90;;
10831;SDS011;5469;48.574;8.768;2022-10-31T03:30:29;3.43;;;0.87;;
10831;SDS011;5469;48.574;8.768;2022-10-31T03:33:09;0.60;;;0.57;;
10831;SDS011;5469;48.574;8.768;2022-10-31T03:35:49;0.73;;;0.70;;
10831;SDS011;5469;48.574;8.768;2022-10-31T03:38:27;1.40;;;0.93;;
10831;SDS011;5469;48.574;8.768;2022-10-31T03:41:05;1.13;;;0.90;;
10831;SDS011;5469;48.574;8.768;2022-10-31T03:43:46;0.63;;;0.43;;
10831;SDS011;5469;48.574;8.768;2022-10-31T03:46:25;1.43;;;1.03;;
10831;SDS011;5469;48.574;8.768;2022-10-31T03:49:01;1.00;;;0.60;;
10831;SDS011;5469;48.574;8.768;2022-10-31T03:51:39;1.23;;;0.90;;
10831;SDS011;5469;48.574;8.768;2022-10-31T03:54:21;2.43;;;0.73;;
10831;SDS011;5469;48.574;8.768;2022-10-31T03:57:05;3.20;;;1.37;;
10831;SDS011;5469;48.574;8.768;2022-10-31T03:59:48;0.67;;;0.67;;
10831;SDS011;5469;48.574;8.768;2022-10-31T04:02:29;1.40;;;0.60;;
10831;SDS011;5469;48.574;8.768;2022-10-31T04:05:06;3.23;;;0.90;;
10831;SDS011;5469;48.574;8.768;2022-10-31T04:07:45;0.90;;;0.53;;
10831;SDS011;5469;48.574;8.768;2022-10-31T04:10:24;2.10;;;0.80;;
10831;SDS011;5469;48.574;8.768;2022-10-31T04:13:02;1.27;;;0.57;;
10831;SDS011;5469;48.574;8.768;2022-10-31T04:15:40;2.23;;;0.70;;
10831;SDS011;5469;48.574;8.768;2022-10-31T04:18:17;1.63;;;1.03;;
10831;SDS011;5469;48.574;8.768;2022-10-31T04:20:59;1.90;;;0.80;;
10831;SDS011;5469;48.574;8.768;2022-10-31T04:23:37;1.93;;;1.00;;
10831;SDS011;5469;48.574;8.768;2022-10-31T04:26:12;1.67;;;0.50;;
10831;SDS011;5469;48.574;8.768;2022-10-31T04:28:47;0.80;;;0.70;;
10831;SDS011;5469;48.574;8.768;2022-10-31T04:31:23;1.47;;;0.70;;
10831;SDS011;5469;48.574;8.768;2022-10-31T04:33:58;1.30;;;1.00;;
10831;SDS011;5469;48.574;8.768;2022-10-31T04:36:33;1.10;;;0.50;;
10831;SDS011;5469;48.574;8.768;2022-10-31T04:39:10;0.97;;;0.87;;
10831;SDS011;5469;48.574;8.768;2022-10-31T04:41:45;2.83;;;0.90;;
10831;SDS011;5469;48.574;8.768;2022-10-31T04:44:20;0.47;;;0.43;;
10831;SDS011;5469;48.574;8.768;2022-10-31T04:46:55;1.23;;;0.70;;
10831;SDS011;5469;48.574;8.768;2022-10-31T04:49:30;0.60;;;0.60;;
10831;SDS011;5469;48.574;8.768;2022-10-31T04:52:05;2.10;;;0.60;;
10831;SDS011;5469;48.574;8.768;2022-10-31T04:54:41;3.03;;;1.00;;
10831;SDS011;5469;48.574;8.768;2022-10-31T04:57:16;1.10;;;0.63;;
10831;SDS011;5469;48.574;8.768;2022-10-31T04:59:51;1.57;;;0.80;;
10831;SDS011;5469;48.574;8.768;2022-10-31T05:02:26;2.03;;;0.70;;
10831;SDS011;5469;48.574;8.768;2022-10-31T05:05:01;1.07;;;0.70;;
10831;SDS011;5469;48.574;8.768;2022-10-31T05:07:38;1.07;;;0.87;;
10831;SDS011;5469;48.574;8.768;2022-10-31T05:10:16;0.83;;;0.80;;
10831;SDS011;5469;48.574;8.768;2022-10-31T05:12:54;1.13;;;0.87;;
10831;SDS011;5469;48.574;8.768;2022-10-31T05:15:30;0.80;;;0.80;;
10831;SDS011;5469;48.574;8.768;2022-10-31T05:18:06;1.60;;;1.10;;
10831;SDS011;5469;48.574;8.768;2022-10-31T05:20:41;2.53;;;0.97;;
10831;SDS011;5469;48.574;8.768;2022-10-31T05:23:16;1.30;;;1.00;;
10831;SDS011;5469;48.574;8.768;2022-10-31T05:25:53;1.13;;;1.00;;
10831;SDS011;5469;48.574;8.768;2022-10-31T05:28:28;3.73;;;0.60;;
10831;SDS011;5469;48.574;8.768;2022-10-31T05:31:03;1.50;;;0.60;;
10831;SDS011;5469;48.574;8.768;2022-10-31T05:33:39;1.17;;;1.07;;
10831;SDS011;5469;48.574;8.768;2022-10-31T05:36:13;2.83;;;0.87;;
10831;SDS011;5469;48.574;8.768;2022-10-31T05:38:49;1.80;;;1.00;;
10831;SDS011;5469;48.574;8.768;2022-10-31T05:41:25;3.13;;;1.10;;
10831;SDS011;5469;48.574;8.768;2022-10-31T05:44:01;2.97;;;1.30;;
10831;SDS011;5469;48.574;8.768;2022-10-31T05:46:36;1.07;;;0.97;;
10831;SDS011;5469;48.574;8.768;2022-10-31T05:49:11;0.80;;;0.70;;
10831;SDS011;5469;48.574;8.768;2022-10-31T05:51:46;3.00;;;1.17;;
10831;SDS011;5469;48.574;8.768;2022-10-31T05:54:21;1.33;;;0.70;;
10831;SDS011;5469;48.574;8.768;2022-10-31T05:56:57;1.80;;;0.63;;
10831;SDS011;5469;48.574;8.768;2022-10-31T05:59:32;1.10;;;1.00;;
10831;SDS011;5469;48.574;8.768;2022-10-31T06:02:08;1.30;;;0.70;;
10831;SDS011;5469;48.574;8.768;2022-10-31T06:04:44;3.00;;;0.70;;
10831;SDS011;5469;48.574;8.768;2022-10-31T06:07:19;0.83;;;0.60;;
10831;SDS011;5469;48.574;8.768;2022-10-31T06:09:54;1.70;;;0.80;;
10831;SDS011;5469;48.574;8.768;2022-10-31T06:12:31;2.30;;;0.97;;
10831;SDS011;5469;48.574;8.768;2022-10-31T06:15:09;2.43;;;0.90;;
10831;SDS011;5469;48.574;8.768;2022-10-31T06:17:45;1.70;;;0.70;;
10831;SDS011;5469;48.574;8.768;2022-10-31T06:20:19;0.73;;;0.60;;
10831;SDS011;5469;48.574;8.768;2022-10-31T06:22:54;1.50;;;0.80;;
10831;SDS011;5469;48.574;8.768;2022-10-31T06:25:31;0.87;;;0.87;;
10831;SDS011;5469;48.574;8.768;2022-10-31T06:28:09;2.47;;;0.87;;
10831;SDS011;5469;48.574;8.768;2022-10-31T06:30:45;1.27;;;0.90;;
10831;SDS011;5469;48.574;8.768;2022-10-31T06:33:21;2.50;;;1.20;;
10831;SDS011;5469;48.574;8.768;2022-10-31T06:35:56;0.77;;;0.73;;
10831;SDS011;5469;48.574;8.768;2022-10-31T06:38:31;1.63;;;0.83;;
10831;SDS011;5469;48.574;8.768;2022-10-31T06:41:05;0.73;;;0.67;;
10831;SDS011;5469;48.574;8.768;2022-10-31T06:43:43;1.53;;;0.73;;
10831;SDS011;5469;48.574;8.768;2022-10-31T06:46:21;2.50;;;1.00;;
10831;SDS011;5469;48.574;8.768;2022-10-31T06:48:56;1.00;;;0.60;;
10831;SDS011;5469;48.574;8.768;2022-10-31T06:51:31;0.73;;;0.53;;
10831;SDS011;5469;48.574;8.768;2022-10-31T06:54:06;6.10;;;1.63;;
10831;SDS011;5469;48.574;8.768;2022-10-31T06:56:41;1.57;;;1.20;;
10831;SDS011;5469;48.574;8.768;2022-10-31T06:59:19;1.17;;;1.00;;
10831;SDS011;5469;48.574;8.768;2022-10-31T07:01:57;4.23;;;1.03;;
10831;SDS011;5469;48.574;8.768;2022-10-31T07:04:32;0.60;;;0.60;;
10831;SDS011;5469;48.574;8.768;2022-10-31T07:07:07;1.10;;;0.77;;
10831;SDS011;5469;48.574;8.768;2022-10-31T07:09:42;1.17;;;0.70;;
10831;SDS011;5469;48.574;8.768;2022-10-31T07:12:17;1.10;;;1.00;;
10831;SDS011;5469;48.574;8.768;2022-10-31T07:14:53;1.40;;;1.20;;
10831;SDS011;5469;48.574;8.768;2022-10-31T07:17:28;1.80;;;0.90;;
10831;SDS011;5469;48.574;8.768;2022-10-31T07:20:04;1.37;;;0.97;;
10831;SDS011;5469;48.574;8.768;2022-10-31T07:22:41;1.10;;;0.70;;
10831;SDS011;5469;48.574;8.768;2022-10-31T07:25:17;4.40;;;1.20;;
10831;SDS011;5469;48.574;8.768;2022-10-31T07:27:52;2.47;;;1.10;;
10831;SDS011;5469;48.574;8.768;2022-10-31T07:30:29;1.73;;;0.80;;
10831;SDS011;5469;48.574;8.768;2022-10-31T07:33:04;2.67;;;1.00;;
10831;SDS011;5469;48.574;8.768;2022-10-31T07:35:39;1.20;;;1.03;;
10831;SDS011;5469;48.574;8.768;2022-10-31T07:38:14;3.93;;;0.90;;
10831;SDS011;5469;48.574;8.768;2022-10-31T07:40:50;1.00;;;0.80;;
10831;SDS011;5469;48.574;8.768;2022-10-31T07:43:25;2.70;;;0.70;;
10831;SDS011;5469;48.574;8.768;2022-10-31T07:46:01;1.37;;;1.00;;
10831;SDS011;5469;48.574;8.768;2022-10-31T07:48:37;1.93;;;1.10;;
10831;SDS011;5469;48.574;8.768;2022-10-31T07:51:12;0.90;;;0.70;;
10831;SDS011;5469;48.574;8.768;2022-10-31T07:53:47;2.20;;;0.80;;
10831;SDS011;5469;48.574;8.768;2022-10-31T07:56:22;1.13;;;0.73;;
10831;SDS011;5469;48.574;8.768;2022-10-31T07:58:57;2.07;;;1.10;;
10831;SDS011;5469;48.574;8.768;2022-10-31T08:01:35;1.10;;;1.00;;
10831;SDS011;5469;48.574;8.768;2022-10-31T08:04:10;1.77;;;0.90;;
10831;SDS011;5469;48.574;8.768;2022-10-31T08:06:45;0.67;;;0.67;;
10831;SDS011;5469;48.574;8.768;2022-10-31T08:09:21;0.70;;;0.70;;
10831;SDS011;5469;48.574;8.768;2022-10-31T08:11:56;2.77;;;1.00;;
10831;SDS011;5469;48.574;8.768;2022-10-31T08:14:33;3.57;;;1.00;;
10831;SDS011;5469;48.574;8.768;2022-10-31T08:17:09;2.50;;;1.50;;
10831;SDS011;5469;48.574;8.768;2022-10-31T08:19:44;2.07;;;1.30;;
10831;SDS011;5469;48.574;8.768;2022-10-31T08:22:19;1.30;;;0.93;;
10831;SDS011;5469;48.574;8.768;2022-10-31T08:24:54;4.20;;;1.20;;
10831;SDS011;5469;48.574;8.768;2022-10-31T08:27:31;2.73;;;0.83;;
10831;SDS011;5469;48.574;8.768;2022-10-31T08:30:06;0.77;;;0.77;;
10831;SDS011;5469;48.574;8.768;2022-10-31T08:32:44;0.77;;;0.77;;
10831;SDS011;5469;48.574;8.768;2022-10-31T08:35:19;0.90;;;0.83;;
10831;SDS011;5469;48.574;8.768;2022-10-31T08:37:54;1.23;;;0.80;;
10831;SDS011;5469;48.574;8.768;2022-10-31T08:40:30;0.70;;;0.70;;
10831;SDS011;5469;48.574;8.768;2022-10-31T08:43:08;1.07;;;0.93;;
10831;SDS011;5469;48.574;8.768;2022-10-31T08:45:47;3.07;;;1.00;;
10831;SDS011;5469;48.574;8.768;2022-10-31T08:48:24;1.53;;;0.87;;
10831;SDS011;5469;48.574;8.768;2022-10-31T08:50:59;0.83;;;0.60;;
10831;SDS011;5469;48.574;8.768;2022-10-31T08:53:34;1.63;;;1.17;;
10831;SDS011;5469;48.574;8.768;2022-10-31T08:56:09;0.77;;;0.70;;
10831;SDS011;5469;48.574;8.768;2022-10-31T08:58:44;3.13;;;1.10;;
10831;SDS011;5469;48.574;8.768;2022-10-31T09:01:19;0.70;;;0.70;;
10831;SDS011;5469;48.574;8.768;2022-10-31T09:03:56;1.50;;;0.97;;
10831;SDS011;5469;48.574;8.768;2022-10-31T09:06:31;1.23;;;1.00;;
10831;SDS011;5469;48.574;8.768;2022-10-31T09:09:07;0.77;;;0.73;;
10831;SDS011;5469;48.574;8.768;2022-10-31T09:11:43;1.10;;;1.00;;
10831;SDS011;5469;48.574;8.768;2022-10-31T09:14:17;0.70;;;0.70;;
10831;SDS011;5469;48.574;8.768;2022-10-31T09:16:52;1.00;;;1.00;;
10831;SDS011;5469;48.574;8.768;2022-10-31T09:19:29;3.17;;;1.23;;
10831;SDS011;5469;48.574;8.768;2022-10-31T09:22:04;3.03;;;0.87;;
10831;SDS011;5469;48.574;8.768;2022-10-31T09:24:39;2.03;;;1.10;;
10831;SDS011;5469;48.574;8.768;2022-10-31T09:27:14;1.30;;;0.97;;
10831;SDS011;5469;48.574;8.768;2022-10-31T09:29:49;1.77;;;1.00;;
10831;SDS011;5469;48.574;8.768;2022-10-31T09:32:24;2.33;;;0.93;;
10831;SDS011;5469;48.574;8.768;2022-10-31T09:35:01;2.40;;;1.13;;
10831;SDS011;5469;48.574;8.768;2022-10-31T09:37:36;1.70;;;1.20;;
10831;SDS011;5469;48.574;8.768;2022-10-31T09:40:11;1.73;;;1.20;;
10831;SDS011;5469;48.574;8.768;2022-10-31T09:42:52;0.80;;;0.50;;
10831;SDS011;5469;48.574;8.768;2022-10-31T09:45:33;7.07;;;1.30;;
10831;SDS011;5469;48.574;8.768;2022-10-31T09:48:17;2.50;;;1.50;;
10831;SDS011;5469;48.574;8.768;2022-10-31T09:51:03;3.00;;;1.30;;
10831;SDS011;5469;48.574;8.768;2022-10-31T09:53:42;1.63;;;0.80;;
10831;SDS011;5469;48.574;8.768;2022-10-31T09:56:22;2.40;;;1.00;;
10831;SDS011;5469;48.574;8.768;2022-10-31T09:58:59;1.43;;;1.00;;
10831;SDS011;5469;48.574;8.768;2022-10-31T10:01:39;1.67;;;1.00;;
10831;SDS011;5469;48.574;8.768;2022-10-31T10:04:26;1.27;;;0.80;;
10831;SDS011;5469;48.574;8.768;2022-10-31T10:07:12;0.80;;;0.80;;
10831;SDS011;5469;48.574;8.768;2022-10-31T10:09:52;4.90;;;1.20;;
10831;SDS011;5469;48.574;8.768;2022-10-31T10:12:30;2.20;;;1.03;;
10831;SDS011;5469;48.574;8.768;2022-10-31T10:15:29;2.07;;;1.10;;
10831;SDS011;5469;48.574;8.768;2022-10-31T10:18:14;1.77;;;0.70;;
10831;SDS011;5469;48.574;8.768;2022-10-31T10:20:57;1.70;;;1.07;;
10831;SDS011;5469;48.574;8.768;2022-10-31T10:23:47;2.83;;;1.30;;
10831;SDS011;5469;48.574;8.768;2022-10-31T10:26:34;3.93;;;1.27;;
10831;SDS011;5469;48.574;8.768;2022-10-31T10:29:17;1.17;;;1.03;;
10831;SDS011;5469;48.574;8.768;2022-10-31T10:32:01;1.40;;;1.30;;
10831;SDS011;5469;48.574;8.768;2022-10-31T10:34:43;1.87;;;1.10;;
10831;SDS011;5469;48.574;8.768;2022-10-31T10:37:24;2.60;;;1.00;;
10831;SDS011;5469;48.574;8.768;2022-10-31T10:40:05;2.60;;;0.90;;
10831;SDS011;5469;48.574;8.768;2022-10-31T10:42:50;2.23;;;1.23;;
10831;SDS011;5469;48.574;8.768;2022-10-31T10:45:57;1.10;;;0.67;;
10831;SDS011;5469;48.574;8.768;2022-10-31T10:48:56;1.93;;;1.10;;
10831;SDS011;5469;48.574;8.768;2022-10-31T10:51:37;8.37;;;1.73;;
10831;SDS011;5469;48.574;8.768;2022-10-31T10:54:21;3.97;;;1.40;;
10831;SDS011;5469;48.574;8.768;2022-10-31T10:57:30;2.17;;;0.90;;
10831;SDS011;5469;48.574;8.768;2022-10-31T11:00:19;3.43;;;1.43;;
10831;SDS011;5469;48.574;8.768;2022-10-31T11:02:56;3.87;;;1.73;;
10831;SDS011;5469;48.574;8.768;2022-10-31T11:05:33;1.37;;;1.20;;
10831;SDS011;5469;48.574;8.768;2022-10-31T11:08:22;3.83;;;1.83;;
10831;SDS011;5469;48.574;8.768;2022-10-31T11:11:00;5.53;;;1.70;;
10831;SDS011;5469;48.574;8.768;2022-10-31T11:13:40;2.07;;;1.23;;
10831;SDS011;5469;48.574;8.768;2022-10-31T11:16:26;3.13;;;1.20;;
10831;SDS011;5469;48.574;8.768;2022-10-31T11:19:06;1.57;;;1.47;;
10831;SDS011;5469;48.574;8.768;2022-10-31T11:21:48;1.10;;;1.10;;
10831;SDS011;5469;48.574;8.768;2022-10-31T11:24:24;1.27;;;1.07;;
10831;SDS011;5469;48.574;8.768;2022-10-31T11:27:05;1.17;;;1.03;;
10831;SDS011;5469;48.574;8.768;2022-10-31T11:29:48;2.37;;;1.17;;
10831;SDS011;5469;48.574;8.768;2022-10-31T11:32:24;3.43;;;1.00;;
10831;SDS011;5469;48.574;8.768;2022-10-31T11:35:01;1.77;;;1.50;;
10831;SDS011;5469;48.574;8.768;2022-10-31T11:37:42;3.47;;;2.53;;
10831;SDS011;5469;48.574;8.768;2022-10-31T11:40:21;6.13;;;3.70;;
10831;SDS011;5469;48.574;8.768;2022-10-31T11:42:58;4.83;;;3.73;;
10831;SDS011;5469;48.574;8.768;2022-10-31T11:45:36;6.07;;;3.10;;
10831;SDS011;5469;48.574;8.768;2022-10-31T11:48:15;5.53;;;3.00;;
10831;SDS011;5469;48.574;8.768;2022-10-31T11:50:52;5.83;;;2.80;;
10831;SDS011;5469;48.574;8.768;2022-10-31T11:53:30;10.17;;;3.23;;
10831;SDS011;5469;48.574;8.768;2022-10-31T11:56:10;3.73;;;2.83;;
10831;SDS011;5469;48.574;8.768;2022-10-31T11:58:55;5.53;;;2.57;;
10831;SDS011;5469;48.574;8.768;2022-10-31T12:01:39;4.63;;;3.13;;
10831;SDS011;5469;48.574;8.768;2022-10-31T12:04:23;3.63;;;2.30;;
10831;SDS011;5469;48.574;8.768;2022-10-31T12:07:07;5.07;;;2.30;;
10831;SDS011;5469;48.574;8.768;2022-10-31T12:09:43;2.60;;;2.17;;
10831;SDS011;5469;48.574;8.768;2022-10-31T12:12:33;5.93;;;2.70;;
10831;SDS011;5469;48.574;8.768;2022-10-31T12:15:26;2.77;;;1.80;;
10831;SDS011;5469;48.574;8.768;2022-10-31T12:21:52;2.00;;;1.80;;
10831;SDS011;5469;48.574;8.768;2022-10-31T12:24:40;3.03;;;2.17;;
10831;SDS011;5469;48.574;8.768;2022-10-31T12:27:25;6.43;;;2.67;;
10831;SDS011;5469;48.574;8.768;2022-10-31T12:30:13;3.57;;;2.43;;
10831;SDS011;5469;48.574;8.768;2022-10-31T12:32:56;4.40;;;1.83;;
10831;SDS011;5469;48.574;8.768;2022-10-31T12:35:48;2.20;;;2.00;;
10831;SDS011;5469;48.574;8.768;2022-10-31T12:38:53;2.93;;;2.03;;
10831;SDS011;5469;48.574;8.768;2022-10-31T12:41:44;5.03;;;2.13;;
10831;SDS011;5469;48.574;8.768;2022-10-31T12:44:30;2.80;;;1.93;;
10831;SDS011;5469;48.574;8.768;2022-10-31T12:47:24;3.53;;;1.80;;
10831;SDS011;5469;48.574;8.768;2022-10-31T12:50:22;2.50;;;1.90;;
10831;SDS011;5469;48.574;8.768;2022-10-31T12:53:11;2.70;;;1.83;;
10831;SDS011;5469;48.574;8.768;2022-10-31T12:56:01;2.03;;;1.67;;
10831;SDS011;5469;48.574;8.768;2022-10-31T12:58:45;2.53;;;2.10;;
10831;SDS011;5469;48.574;8.768;2022-10-31T13:01:26;5.67;;;2.07;;
10831;SDS011;5469;48.574;8.768;2022-10-31T13:04:10;3.23;;;1.83;;
10831;SDS011;5469;48.574;8.768;2022-10-31T13:06:50;2.33;;;1.90;;
10831;SDS011;5469;48.574;8.768;2022-10-31T13:09:30;1.23;;;1.13;;
10831;SDS011;5469;48.574;8.768;2022-10-31T13:12:13;1.50;;;1.33;;
10831;SDS011;5469;48.574;8.768;2022-10-31T13:14:52;1.87;;;1.20;;
10831;SDS011;5469;48.574;8.768;2022-10-31T13:17:31;1.83;;;1.30;;
10831;SDS011;5469;48.574;8.768;2022-10-31T13:20:13;1.87;;;1.33;;
10831;SDS011;5469;48.574;8.768;2022-10-31T13:22:55;5.83;;;1.60;;
10831;SDS011;5469;48.574;8.768;2022-10-31T13:25:38;1.63;;;1.47;;
10831;SDS011;5469;48.574;8.768;2022-10-31T13:28:23;2.17;;;1.30;;
10831;SDS011;5469;48.574;8.768;2022-10-31T13:31:01;1.97;;;1.47;;
10831;SDS011;5469;48.574;8.768;2022-10-31T13:33:38;1.47;;;1.37;;
10831;SDS011;5469;48.574;8.768;2022-10-31T13:36:19;2.23;;;1.33;;
10831;SDS011;5469;48.574;8.768;2022-10-31T13:38:59;1.27;;;1.17;;
10831;SDS011;5469;48.574;8.768;2022-10-31T13:41:48;3.00;;;1.45;;
10831;SDS011;5469;48.574;8.768;2022-10-31T13:44:34;3.23;;;1.40;;
10831;SDS011;5469;48.574;8.768;2022-10-31T13:47:25;1.52;;;1.35;;
10831;SDS011;5469;48.574;8.768;2022-10-31T13:50:03;1.50;;;1.10;;
10831;SDS011;5469;48.574;8.768;2022-10-31T13:52:38;1.50;;;0.85;;
10831;SDS011;5469;48.574;8.768;2022-10-31T13:58:22;1.20;;;1.10;;
10831;SDS011;5469;48.574;8.768;2022-10-31T14:01:03;1.75;;;1.00;;
10831;SDS011;5469;48.574;8.768;2022-10-31T14:03:46;4.00;;;1.20;;
10831;SDS011;5469;48.574;8.768;2022-10-31T14:06:36;1.20;;;1.10;;
10831;SDS011;5469;48.574;8.768;2022-10-31T14:09:17;3.17;;;1.15;;
10831;SDS011;5469;48.574;8.768;2022-10-31T14:11:57;1.23;;;1.13;;
10831;SDS011;5469;48.574;8.768;2022-10-31T14:14:39;2.28;;;1.20;;
10831;SDS011;5469;48.574;8.768;2022-10-31T14:17:21;1.83;;;1.45;;
10831;SDS011;5469;48.574;8.768;2022-10-31T14:22:56;2.63;;;1.15;;
10831;SDS011;5469;48.574;8.768;2022-10-31T14:25:34;2.67;;;1.55;;
10831;SDS011;5469;48.574;8.768;2022-10-31T14:28:21;2.08;;;1.50;;
10831;SDS011;5469;48.574;8.768;2022-10-31T14:34:32;1.55;;;1.02;;
10831;SDS011;5469;48.574;8.768;2022-10-31T14:37:19;1.83;;;1.23;;
10831;SDS011;5469;48.574;8.768;2022-10-31T14:40:14;1.52;;;1.10;;
10831;SDS011;5469;48.574;8.768;2022-10-31T14:42:59;2.13;;;1.33;;
10831;SDS011;5469;48.574;8.768;2022-10-31T14:45:53;1.13;;;1.00;;
10831;SDS011;5469;48.574;8.768;2022-10-31T14:48:37;3.20;;;1.30;;
10831;SDS011;5469;48.574;8.768;2022-10-31T14:51:28;2.75;;;1.50;;
10831;SDS011;5469;48.574;8.768;2022-10-31T14:54:07;1.50;;;1.13;;
10831;SDS011;5469;48.574;8.768;2022-10-31T14:56:48;2.25;;;1.58;;
10831;SDS011;5469;48.574;8.768;2022-10-31T14:59:26;3.13;;;1.20;;
10831;SDS011;5469;48.574;8.768;2022-10-31T15:02:08;4.43;;;1.42;;
10831;SDS011;5469;48.574;8.768;2022-10-31T15:04:47;1.30;;;1.20;;
10831;SDS011;5469;48.574;8.768;2022-10-31T15:07:26;1.75;;;1.42;;
10831;SDS011;5469;48.574;8.768;2022-10-31T15:10:02;2.22;;;2.03;;
10831;SDS011;5469;48.574;8.768;2022-10-31T15:12:39;2.83;;;1.58;;
10831;SDS011;5469;48.574;8.768;2022-10-31T15:15:14;3.80;;;1.63;;
10831;SDS011;5469;48.574;8.768;2022-10-31T15:17:55;1.70;;;1.60;;
10831;SDS011;5469;48.574;8.768;2022-10-31T15:20:33;0.90;;;0.90;;
10831;SDS011;5469;48.574;8.768;2022-10-31T15:23:24;2.25;;;1.52;;
10831;SDS011;5469;48.574;8.768;2022-10-31T15:26:03;2.53;;;1.58;;
10831;SDS011;5469;48.574;8.768;2022-10-31T15:28:40;8.38;;;1.77;;
10831;SDS011;5469;48.574;8.768;2022-10-31T15:31:16;3.47;;;1.63;;
10831;SDS011;5469;48.574;8.768;2022-10-31T15:33:52;3.45;;;1.98;;
10831;SDS011;5469;48.574;8.768;2022-10-31T15:36:31;3.13;;;1.40;;
10831;SDS011;5469;48.574;8.768;2022-10-31T15:39:09;4.28;;;2.10;;
10831;SDS011;5469;48.574;8.768;2022-10-31T15:41:47;3.03;;;1.53;;
10831;SDS011;5469;48.574;8.768;2022-10-31T15:44:26;4.22;;;1.73;;
10831;SDS011;5469;48.574;8.768;2022-10-31T15:47:05;3.90;;;2.33;;
10831;SDS011;5469;48.574;8.768;2022-10-31T15:49:48;3.10;;;1.92;;
10831;SDS011;5469;48.574;8.768;2022-10-31T15:52:29;2.10;;;1.90;;
10831;SDS011;5469;48.574;8.768;2022-10-31T15:55:16;3.75;;;1.73;;
10831;SDS011;5469;48.574;8.768;2022-10-31T15:57:56;3.40;;;1.92;;
10831;SDS011;5469;48.574;8.768;2022-10-31T16:00:37;2.50;;;1.67;;
10831;SDS011;5469;48.574;8.768;2022-10-31T16:03:23;3.40;;;2.08;;
10831;SDS011;5469;48.574;8.768;2022-10-31T16:06:02;3.95;;;1.85;;
10831;SDS011;5469;48.574;8.768;2022-10-31T16:08:44;3.37;;;1.93;;
10831;SDS011;5469;48.574;8.768;2022-10-31T16:11:25;3.55;;;1.77;;
10831;SDS011;5469;48.574;8.768;2022-10-31T16:14:06;3.23;;;1.80;;
10831;SDS011;5469;48.574;8.768;2022-10-31T16:16:48;3.67;;;1.83;;
10831;SDS011;5469;48.574;8.768;2022-10-31T16:19:26;4.43;;;1.87;;
10831;SDS011;5469;48.574;8.768;2022-10-31T16:22:06;2.87;;;2.13;;
10831;SDS011;5469;48.574;8.768;2022-10-31T16:24:45;2.53;;;1.63;;
10831;SDS011;5469;48.574;8.768;2022-10-31T16:27:25;7.67;;;2.20;;